Time;durP1;ratioP1;P1;durP2;ratioP2;P2;SDS_P1;SDS_P2;PMS_P1;PMS_P2;Temp;Humidity;BMP_temperature;BMP_pressure;BME280_temperature;BME280_humidity;BME280_pressure;Samples;Min_cycle;Max_cycle;Signal;HPM_P1;HPM_P2
2023/08/01 00:01:28;;;;;;;6.25;3.70;;;;;;;;;;5029877;28;20051;-70
2023/08/01 00:03:55;;;;;;;8.82;3.60;;;;;;;;;;5032633;28;20045;-71
2023/08/01 00:06:22;;;;;;;5.60;3.65;;;;;;;;;;5033951;28;20046;-71
2023/08/01 00:08:49;;;;;;;6.65;3.65;;;;;;;;;;5033753;28;20076;-70
2023/08/01 00:11:16;;;;;;;6.05;3.35;;;;;;;;;;5034135;28;20050;-71
2023/08/01 00:13:44;;;;;;;6.03;2.92;;;;;;;;;;5033814;28;20084;-70
2023/08/01 00:16:10;;;;;;;4.70;2.85;;;;;;;;;;5034354;28;20053;-71
2023/08/01 00:18:37;;;;;;;3.95;2.63;;;;;;;;;;5032959;28;20067;-72
2023/08/01 00:21:05;;;;;;;3.47;2.65;;;;;;;;;;5033398;28;20064;-72
2023/08/01 00:23:31;;;;;;;3.83;2.60;;;;;;;;;;5033059;28;20056;-71
2023/08/01 00:25:58;;;;;;;3.10;2.45;;;;;;;;;;5033585;28;20041;-71
2023/08/01 00:28:26;;;;;;;5.97;3.20;;;;;;;;;;5032972;28;20060;-71
2023/08/01 00:31:02;;;;;;;4.32;2.58;;;;;;;;;;5032880;28;20060;-71
2023/08/01 00:33:29;;;;;;;4.65;2.47;;;;;;;;;;5033488;28;20056;-72
2023/08/01 00:35:55;;;;;;;4.18;2.47;;;;;;;;;;5033018;28;20060;-70
2023/08/01 00:38:22;;;;;;;4.07;2.70;;;;;;;;;;5033337;28;20052;-72
2023/08/01 00:40:50;;;;;;;6.68;2.53;;;;;;;;;;5032372;28;20041;-71
2023/08/01 00:43:16;;;;;;;4.15;2.20;;;;;;;;;;5033150;28;20073;-71
2023/08/01 00:45:43;;;;;;;4.88;2.42;;;;;;;;;;5032330;28;20076;-71
2023/08/01 00:48:11;;;;;;;3.42;1.92;;;;;;;;;;5033402;28;20056;-71
2023/08/01 00:50:38;;;;;;;5.05;2.03;;;;;;;;;;5032412;28;20045;-72
2023/08/01 00:53:05;;;;;;;1.90;1.65;;;;;;;;;;5033264;28;20410;-72
2023/08/01 00:55:33;;;;;;;3.25;1.52;;;;;;;;;;5032933;28;20139;-71
2023/08/01 00:58:00;;;;;;;1.77;1.40;;;;;;;;;;5032917;28;20083;-70
2023/08/01 01:00:27;;;;;;;2.33;1.88;;;;;;;;;;5031967;28;20051;-71
2023/08/01 01:02:53;;;;;;;3.15;1.70;;;;;;;;;;5033189;28;20056;-72
2023/08/01 01:05:23;;;;;;;2.03;1.38;;;;;;;;;;5032783;28;20414;-71
2023/08/01 01:07:50;;;;;;;1.90;1.30;;;;;;;;;;5032960;28;20051;-72
2023/08/01 01:10:17;;;;;;;2.33;1.50;;;;;;;;;;5032492;28;20381;-71
2023/08/01 01:12:44;;;;;;;2.25;1.38;;;;;;;;;;5032638;28;20478;-71
2023/08/01 01:15:10;;;;;;;2.50;1.70;;;;;;;;;;5032062;28;20621;-71
2023/08/01 01:17:37;;;;;;;2.30;1.58;;;;;;;;;;5032286;28;20495;-70
2023/08/01 01:20:04;;;;;;;1.83;1.50;;;;;;;;;;5032311;28;20422;-71
2023/08/01 01:22:32;;;;;;;3.55;1.70;;;;;;;;;;5032584;28;20046;-71
2023/08/01 01:25:01;;;;;;;2.72;1.55;;;;;;;;;;5032750;28;20045;-71
2023/08/01 01:27:28;;;;;;;2.78;1.67;;;;;;;;;;5032221;28;20133;-72
2023/08/01 01:29:56;;;;;;;1.90;1.45;;;;;;;;;;5032341;28;20060;-71
2023/08/01 01:32:23;;;;;;;1.92;1.40;;;;;;;;;;5032336;28;20093;-71
2023/08/01 01:34:49;;;;;;;3.78;1.40;;;;;;;;;;5032284;28;20049;-71
2023/08/01 01:37:16;;;;;;;2.22;1.52;;;;;;;;;;5031837;28;20077;-70
2023/08/01 01:39:44;;;;;;;3.35;1.33;;;;;;;;;;5031404;28;20045;-71
2023/08/01 01:42:13;;;;;;;1.45;1.30;;;;;;;;;;5031930;28;20488;-71
2023/08/01 01:44:39;;;;;;;3.80;1.48;;;;;;;;;;5032146;28;20129;-71
2023/08/01 01:47:06;;;;;;;1.98;1.38;;;;;;;;;;5031715;28;20562;-71
2023/08/01 01:49:33;;;;;;;3.60;1.52;;;;;;;;;;5031941;28;20057;-71
2023/08/01 01:52:00;;;;;;;1.60;1.45;;;;;;;;;;5032045;28;20415;-71
2023/08/01 01:54:26;;;;;;;3.05;1.50;;;;;;;;;;5031247;28;20202;-71
2023/08/01 01:56:54;;;;;;;2.08;1.42;;;;;;;;;;5031968;28;20410;-72
2023/08/01 01:59:20;;;;;;;2.35;1.60;;;;;;;;;;5031692;28;20410;-71
2023/08/01 02:01:47;;;;;;;2.55;1.58;;;;;;;;;;5031378;28;20053;-72
2023/08/01 02:04:13;;;;;;;3.00;1.50;;;;;;;;;;5031823;28;20053;-71
2023/08/01 02:06:40;;;;;;;3.08;1.90;;;;;;;;;;5031565;28;20410;-70
2023/08/01 02:09:07;;;;;;;1.60;1.30;;;;;;;;;;5030978;28;20052;-71
2023/08/01 02:11:33;;;;;;;2.65;1.83;;;;;;;;;;5031343;28;20047;-70
2023/08/01 02:14:02;;;;;;;2.15;1.60;;;;;;;;;;5031644;28;20049;-70
2023/08/01 02:16:29;;;;;;;2.63;2.10;;;;;;;;;;5031861;28;20140;-70
2023/08/01 02:18:56;;;;;;;2.92;2.28;;;;;;;;;;5031080;28;20048;-70
2023/08/01 02:21:22;;;;;;;3.70;2.03;;;;;;;;;;5030784;28;20045;-71
2023/08/01 02:23:49;;;;;;;6.15;2.80;;;;;;;;;;5031281;28;20059;-71
2023/08/01 02:26:15;;;;;;;3.78;2.40;;;;;;;;;;5030621;28;20051;-71
2023/08/01 02:28:42;;;;;;;4.38;2.30;;;;;;;;;;5031356;28;20053;-71
2023/08/01 02:31:10;;;;;;;4.32;2.55;;;;;;;;;;5030342;28;20042;-70
2023/08/01 02:33:36;;;;;;;4.50;2.50;;;;;;;;;;5031475;28;20752;-71
2023/08/01 02:36:03;;;;;;;4.70;2.58;;;;;;;;;;5030838;28;20483;-71
2023/08/01 02:38:30;;;;;;;3.03;2.05;;;;;;;;;;5031095;28;20053;-71
2023/08/01 02:40:56;;;;;;;3.63;1.80;;;;;;;;;;5030269;28;20060;-71
2023/08/01 02:43:23;;;;;;;3.78;2.15;;;;;;;;;;5031066;28;20046;-71
2023/08/01 02:45:49;;;;;;;3.33;1.80;;;;;;;;;;5030358;28;20487;-71
2023/08/01 02:48:17;;;;;;;3.33;1.60;;;;;;;;;;5030732;28;20483;-71
2023/08/01 02:50:44;;;;;;;1.80;1.60;;;;;;;;;;5029656;28;20059;-72
2023/08/01 02:53:10;;;;;;;2.75;1.60;;;;;;;;;;5030952;28;20045;-72
2023/08/01 02:55:38;;;;;;;3.10;1.30;;;;;;;;;;5030308;28;20055;-71
2023/08/01 02:58:04;;;;;;;2.92;1.42;;;;;;;;;;5030565;28;20136;-71
2023/08/01 03:00:31;;;;;;;1.30;1.20;;;;;;;;;;5030304;28;20048;-71
2023/08/01 03:02:58;;;;;;;1.95;1.35;;;;;;;;;;5030060;28;20080;-71
2023/08/01 03:05:26;;;;;;;1.85;1.33;;;;;;;;;;5030766;28;20045;-71
2023/08/01 03:07:52;;;;;;;1.70;1.20;;;;;;;;;;5030223;28;20064;-71
2023/08/01 03:10:19;;;;;;;1.55;1.02;;;;;;;;;;5030055;28;20049;-71
2023/08/01 03:12:46;;;;;;;1.95;1.42;;;;;;;;;;5030231;28;20045;-71
2023/08/01 03:15:12;;;;;;;1.65;1.10;;;;;;;;;;5030464;28;20423;-71
2023/08/01 03:17:39;;;;;;;2.63;1.30;;;;;;;;;;5029749;28;20049;-71
2023/08/01 03:20:10;;;;;;;1.77;1.10;;;;;;;;;;5030438;28;20621;-71
2023/08/01 03:22:38;;;;;;;2.65;1.30;;;;;;;;;;5030149;28;20136;-71
2023/08/01 03:25:07;;;;;;;3.05;1.38;;;;;;;;;;5030320;28;20052;-70
2023/08/01 03:27:33;;;;;;;1.75;1.30;;;;;;;;;;5030008;28;20521;-71
2023/08/01 03:30:00;;;;;;;2.05;1.38;;;;;;;;;;5030096;28;20388;-71
2023/08/01 03:32:27;;;;;;;3.67;1.67;;;;;;;;;;5029680;28;20050;-71
2023/08/01 03:34:54;;;;;;;1.80;1.25;;;;;;;;;;5030402;28;20057;-71
2023/08/01 03:37:20;;;;;;;1.70;1.30;;;;;;;;;;5029728;28;20048;-72
2023/08/01 03:39:48;;;;;;;1.73;1.33;;;;;;;;;;5029847;28;20046;-72
2023/08/01 03:42:15;;;;;;;1.80;1.20;;;;;;;;;;5030144;28;20046;-71
2023/08/01 03:44:41;;;;;;;2.00;1.10;;;;;;;;;;5029402;28;20410;-71
2023/08/01 03:47:08;;;;;;;2.58;1.20;;;;;;;;;;5029888;28;20396;-71
2023/08/01 03:49:35;;;;;;;1.08;0.98;;;;;;;;;;5029459;28;20415;-71
2023/08/01 03:52:01;;;;;;;1.85;1.10;;;;;;;;;;5030325;28;20049;-71
2023/08/01 03:54:28;;;;;;;1.55;1.00;;;;;;;;;;5029650;28;20045;-71
2023/08/01 03:56:56;;;;;;;1.60;1.08;;;;;;;;;;5030022;28;20045;-71
2023/08/01 03:59:23;;;;;;;1.83;1.00;;;;;;;;;;5029360;28;20457;-71
2023/08/01 04:01:50;;;;;;;1.10;0.88;;;;;;;;;;5043873;22;20034;-68
2023/08/01 04:04:17;;;;;;;1.63;1.08;;;;;;;;;;5049507;28;20048;-68
2023/08/01 04:06:43;;;;;;;1.10;0.90;;;;;;;;;;5049806;28;20506;-69
2023/08/01 04:09:10;;;;;;;1.30;0.80;;;;;;;;;;5049431;28;20049;-68
2023/08/01 04:11:37;;;;;;;1.35;0.90;;;;;;;;;;5049597;28;20045;-69
2023/08/01 04:14:04;;;;;;;1.83;0.80;;;;;;;;;;5049372;28;20132;-68
2023/08/01 04:16:31;;;;;;;0.68;0.68;;;;;;;;;;5049695;28;20049;-68
2023/08/01 04:18:58;;;;;;;0.80;0.70;;;;;;;;;;5049493;28;20049;-69
2023/08/01 04:21:24;;;;;;;0.90;0.73;;;;;;;;;;5049027;28;20409;-68
2023/08/01 04:23:51;;;;;;;2.30;0.80;;;;;;;;;;5049821;28;20041;-68
2023/08/01 04:26:17;;;;;;;1.42;0.77;;;;;;;;;;5049367;28;20144;-68
2023/08/01 04:28:44;;;;;;;0.82;0.60;;;;;;;;;;5049645;28;20052;-69
2023/08/01 04:31:12;;;;;;;0.88;0.68;;;;;;;;;;5048836;28;20045;-68
2023/08/01 04:33:38;;;;;;;0.60;0.50;;;;;;;;;;5049906;28;20052;-68
2023/08/01 04:36:05;;;;;;;0.82;0.60;;;;;;;;;;5049602;28;20045;-68
2023/08/01 04:38:31;;;;;;;0.82;0.80;;;;;;;;;;5049624;28;20049;-68
2023/08/01 04:40:58;;;;;;;0.82;0.63;;;;;;;;;;5048404;28;20403;-68
2023/08/01 04:43:24;;;;;;;0.93;0.70;;;;;;;;;;5049712;28;20057;-68
2023/08/01 04:45:51;;;;;;;0.82;0.68;;;;;;;;;;5049054;28;20063;-68
2023/08/01 04:48:19;;;;;;;1.25;0.63;;;;;;;;;;5049405;28;20076;-68
2023/08/01 04:50:46;;;;;;;0.77;0.68;;;;;;;;;;5052111;28;20052;-68
2023/08/01 04:53:13;;;;;;;0.80;0.60;;;;;;;;;;5052676;28;20041;-68
2023/08/01 04:55:41;;;;;;;1.73;0.60;;;;;;;;;;5052723;28;20044;-68
2023/08/01 04:58:07;;;;;;;1.00;0.70;;;;;;;;;;5052454;28;20055;-68
2023/08/01 05:00:34;;;;;;;2.67;0.60;;;;;;;;;;5052380;28;20132;-68
2023/08/01 05:03:00;;;;;;;0.90;0.52;;;;;;;;;;5052331;28;20045;-69
2023/08/01 05:05:28;;;;;;;0.35;0.35;;;;;;;;;;5053071;28;20051;-68
2023/08/01 05:07:55;;;;;;;1.45;0.35;;;;;;;;;;5052183;28;20380;-68
2023/08/01 05:10:21;;;;;;;0.30;0.30;;;;;;;;;;5052082;28;20055;-68
2023/08/01 05:12:48;;;;;;;0.30;0.30;;;;;;;;;;5052540;28;20574;-68
2023/08/01 05:15:14;;;;;;;0.35;0.35;;;;;;;;;;5052656;28;20045;-68
2023/08/01 05:17:41;;;;;;;0.40;0.30;;;;;;;;;;5052402;28;20049;-68
2023/08/01 05:20:09;;;;;;;0.32;0.30;;;;;;;;;;5051916;28;20045;-68
2023/08/01 05:22:36;;;;;;;1.48;0.25;;;;;;;;;;5052006;28;20060;-68
2023/08/01 05:25:04;;;;;;;0.20;0.20;;;;;;;;;;5052802;28;20071;-68
2023/08/01 05:27:31;;;;;;;0.45;0.20;;;;;;;;;;5052711;28;20139;-68
2023/08/01 05:29:57;;;;;;;1.05;0.30;;;;;;;;;;5051607;28;20045;-68
2023/08/01 05:32:24;;;;;;;0.30;0.30;;;;;;;;;;5052378;28;20052;-68
2023/08/01 05:34:50;;;;;;;1.38;0.30;;;;;;;;;;5052294;28;20055;-68
2023/08/01 05:37:17;;;;;;;0.20;0.20;;;;;;;;;;5052567;28;20052;-68
2023/08/01 05:39:45;;;;;;;0.70;0.63;;;;;;;;;;5051213;28;20045;-68
2023/08/01 05:42:11;;;;;;;1.35;0.20;;;;;;;;;;5052266;28;20393;-68
2023/08/01 05:44:38;;;;;;;0.28;0.28;;;;;;;;;;5051549;28;20075;-68
2023/08/01 05:47:05;;;;;;;0.30;0.30;;;;;;;;;;5052133;28;20052;-68
2023/08/01 05:49:31;;;;;;;0.43;0.43;;;;;;;;;;5051076;28;20051;-68
2023/08/01 05:51:58;;;;;;;0.95;0.30;;;;;;;;;;5051691;28;20081;-68
2023/08/01 05:54:25;;;;;;;0.40;0.40;;;;;;;;;;5051562;28;20045;-67
2023/08/01 05:56:53;;;;;;;0.40;0.40;;;;;;;;;;5051962;28;20494;-67
2023/08/01 05:59:19;;;;;;;1.20;0.50;;;;;;;;;;5051221;28;20048;-68
2023/08/01 06:01:46;;;;;;;0.47;0.43;;;;;;;;;;5051024;28;20045;-68
2023/08/01 06:04:13;;;;;;;1.10;0.50;;;;;;;;;;5051614;28;20045;-68
2023/08/01 06:06:39;;;;;;;1.85;0.68;;;;;;;;;;5051207;28;20351;-68
2023/08/01 06:09:06;;;;;;;1.05;0.60;;;;;;;;;;5051609;28;20051;-67
2023/08/01 06:11:33;;;;;;;0.80;0.70;;;;;;;;;;5050588;28;20045;-67
2023/08/01 06:14:01;;;;;;;1.65;0.77;;;;;;;;;;5051487;28;20478;-67
2023/08/01 06:16:28;;;;;;;1.05;0.60;;;;;;;;;;5050900;28;20269;-68
2023/08/01 06:18:54;;;;;;;4.32;0.80;;;;;;;;;;5051060;28;20053;-68
2023/08/01 06:21:21;;;;;;;0.80;0.70;;;;;;;;;;5050578;28;20041;-68
2023/08/01 06:23:47;;;;;;;1.15;0.60;;;;;;;;;;5051479;28;20524;-68
2023/08/01 06:26:15;;;;;;;1.60;0.90;;;;;;;;;;5050985;28;20053;-68
2023/08/01 06:28:41;;;;;;;1.23;0.88;;;;;;;;;;5051082;28;20480;-67
2023/08/01 06:31:09;;;;;;;2.70;0.90;;;;;;;;;;5050228;28;20131;-68
2023/08/01 06:33:36;;;;;;;3.92;1.20;;;;;;;;;;5050786;28;20049;-67
2023/08/01 06:36:03;;;;;;;2.65;1.10;;;;;;;;;;5051030;28;20477;-68
2023/08/01 06:38:29;;;;;;;1.65;1.10;;;;;;;;;;5051360;28;20056;-67
2023/08/01 06:40:56;;;;;;;2.10;1.20;;;;;;;;;;5050875;28;20495;-68
2023/08/01 06:43:24;;;;;;;1.88;1.00;;;;;;;;;;5050583;28;20051;-68
2023/08/01 06:45:51;;;;;;;2.17;1.10;;;;;;;;;;5051323;28;20056;-68
2023/08/01 06:48:19;;;;;;;3.92;1.30;;;;;;;;;;5051208;28;20111;-68
2023/08/01 06:50:45;;;;;;;1.77;1.20;;;;;;;;;;5051490;28;20169;-68
2023/08/01 06:53:12;;;;;;;1.17;0.98;;;;;;;;;;5051672;28;20080;-67
2023/08/01 06:55:39;;;;;;;2.08;1.10;;;;;;;;;;5051499;28;20128;-67
2023/08/01 06:58:06;;;;;;;2.58;1.30;;;;;;;;;;5050365;28;20482;-67
2023/08/01 07:00:33;;;;;;;1.88;1.30;;;;;;;;;;5049815;28;20041;-67
2023/08/01 07:02:59;;;;;;;1.75;1.30;;;;;;;;;;5050209;28;20045;-68
2023/08/01 07:05:27;;;;;;;1.20;1.10;;;;;;;;;;5050649;28;20049;-68
2023/08/01 07:07:54;;;;;;;2.53;1.30;;;;;;;;;;5049923;28;20045;-68
2023/08/01 07:10:20;;;;;;;2.10;1.38;;;;;;;;;;5050047;28;20049;-67
2023/08/01 07:12:47;;;;;;;2.17;1.30;;;;;;;;;;5049582;28;20045;-68
2023/08/01 07:15:14;;;;;;;2.38;1.38;;;;;;;;;;5050627;28;20053;-67
2023/08/01 07:17:41;;;;;;;2.28;1.13;;;;;;;;;;5050348;28;20535;-67
2023/08/01 07:20:08;;;;;;;1.40;1.20;;;;;;;;;;5049629;28;20045;-67
2023/08/01 07:22:36;;;;;;;1.58;1.30;;;;;;;;;;5050194;28;20045;-67
2023/08/01 07:25:02;;;;;;;2.90;1.30;;;;;;;;;;5049892;28;20045;-67
2023/08/01 07:27:29;;;;;;;1.77;1.33;;;;;;;;;;5049984;28;20045;-68
2023/08/01 07:29:56;;;;;;;2.75;1.67;;;;;;;;;;5049059;28;20128;-67
2023/08/01 07:32:22;;;;;;;2.63;1.38;;;;;;;;;;5050260;28;20045;-68
2023/08/01 07:34:49;;;;;;;4.75;1.50;;;;;;;;;;5049544;28;20049;-67
2023/08/01 07:37:15;;;;;;;3.08;1.30;;;;;;;;;;5050292;28;20720;-68
2023/08/01 07:39:43;;;;;;;1.60;1.50;;;;;;;;;;5049242;28;20486;-67
2023/08/01 07:42:10;;;;;;;4.25;1.50;;;;;;;;;;5049777;28;20051;-68
2023/08/01 07:44:36;;;;;;;2.17;1.38;;;;;;;;;;5049883;28;20076;-67
2023/08/01 07:47:03;;;;;;;2.28;1.30;;;;;;;;;;5050555;28;20045;-68
2023/08/01 07:49:30;;;;;;;2.15;1.40;;;;;;;;;;5049525;28;20128;-68
2023/08/01 07:51:57;;;;;;;2.80;2.05;;;;;;;;;;5049845;28;20045;-67
2023/08/01 07:54:24;;;;;;;2.92;1.20;;;;;;;;;;5050147;28;20041;-67
2023/08/01 07:56:52;;;;;;;2.67;1.38;;;;;;;;;;5049127;28;20524;-68
2023/08/01 07:59:19;;;;;;;3.92;1.60;;;;;;;;;;5044447;28;20128;-67
2023/08/01 08:01:45;;;;;;;3.25;1.75;;;;;;;;;;5048128;28;20085;-67
2023/08/01 08:04:14;;;;;;;2.28;1.30;;;;;;;;;;5049734;28;20049;-68
2023/08/01 08:06:40;;;;;;;3.20;1.40;;;;;;;;;;5048786;28;20053;-69
2023/08/01 08:09:07;;;;;;;2.08;1.27;;;;;;;;;;5049781;28;20064;-68
2023/08/01 08:11:34;;;;;;;4.05;1.17;;;;;;;;;;5048678;28;20041;-69
2023/08/01 08:14:02;;;;;;;3.10;1.30;;;;;;;;;;5049367;28;20094;-68
2023/08/01 08:16:28;;;;;;;1.58;1.20;;;;;;;;;;5048637;28;20056;-68
2023/08/01 08:18:55;;;;;;;3.22;1.77;;;;;;;;;;5043438;28;20049;-69
2023/08/01 08:21:21;;;;;;;2.92;1.27;;;;;;;;;;5047768;28;20045;-68
2023/08/01 08:23:48;;;;;;;3.13;1.35;;;;;;;;;;5048328;28;20546;-69
2023/08/01 08:26:14;;;;;;;2.08;1.40;;;;;;;;;;5052710;28;20516;-68
2023/08/01 08:28:42;;;;;;;2.85;1.45;;;;;;;;;;5052399;28;20055;-69
2023/08/01 08:31:10;;;;;;;2.63;1.30;;;;;;;;;;5052743;28;20053;-69
2023/08/01 08:33:36;;;;;;;2.75;1.45;;;;;;;;;;5052809;28;20439;-68
2023/08/01 08:36:03;;;;;;;3.13;1.55;;;;;;;;;;5049649;28;20060;-69
2023/08/01 08:38:30;;;;;;;2.40;1.20;;;;;;;;;;5050426;28;20051;-69
2023/08/01 08:41:10;;;;;;;3.08;1.33;;;;;;;;;;5050809;28;20075;-68
2023/08/01 08:43:37;;;;;;;1.13;1.02;;;;;;;;;;5051512;28;20072;-68
2023/08/01 08:46:05;;;;;;;2.75;1.27;;;;;;;;;;5051940;28;20049;-68
2023/08/01 08:48:34;;;;;;;3.08;1.20;;;;;;;;;;5045649;28;20152;-68
2023/08/01 08:51:03;;;;;;;2.05;1.27;;;;;;;;;;5050446;28;20045;-68
2023/08/01 08:53:32;;;;;;;2.50;1.35;;;;;;;;;;5052031;28;20049;-67
2023/08/01 08:56:00;;;;;;;2.03;1.38;;;;;;;;;;5052830;28;20516;-67
2023/08/01 08:58:27;;;;;;;4.25;1.30;;;;;;;;;;5051989;28;20056;-67
2023/08/01 09:00:54;;;;;;;2.28;1.45;;;;;;;;;;5052190;28;20051;-67
2023/08/01 09:03:20;;;;;;;2.38;1.30;;;;;;;;;;5052439;28;20418;-66
2023/08/01 09:05:50;;;;;;;2.22;1.20;;;;;;;;;;5052880;28;20487;-67
2023/08/01 09:08:20;;;;;;;2.55;1.35;;;;;;;;;;5052428;28;20051;-67
2023/08/01 09:10:46;;;;;;;4.10;1.40;;;;;;;;;;5052257;28;20053;-67
2023/08/01 09:13:13;;;;;;;2.80;1.70;;;;;;;;;;5052253;28;20037;-67
2023/08/01 09:15:41;;;;;;;3.92;1.65;;;;;;;;;;5052623;28;20053;-67
2023/08/01 09:18:08;;;;;;;2.85;1.40;;;;;;;;;;5051735;28;20056;-68
2023/08/01 09:20:41;;;;;;;3.15;1.67;;;;;;;;;;5052202;28;20044;-67
2023/08/01 09:23:10;;;;;;;5.32;1.52;;;;;;;;;;5052718;28;20049;-66
2023/08/01 09:25:37;;;;;;;3.05;1.63;;;;;;;;;;5051938;28;20051;-68
2023/08/01 09:28:04;;;;;;;3.20;1.50;;;;;;;;;;5052132;28;20041;-67
2023/08/01 09:30:31;;;;;;;2.65;1.50;;;;;;;;;;5051145;28;20080;-67
2023/08/01 09:32:58;;;;;;;4.47;1.50;;;;;;;;;;5052298;28;20051;-67
2023/08/01 09:35:26;;;;;;;3.80;1.70;;;;;;;;;;5051154;28;20110;-67
2023/08/01 09:37:52;;;;;;;2.63;1.50;;;;;;;;;;5052163;28;20048;-67
2023/08/01 09:40:20;;;;;;;4.38;1.90;;;;;;;;;;5051483;28;20117;-67
2023/08/01 09:42:47;;;;;;;3.42;1.70;;;;;;;;;;5052044;28;20124;-68
2023/08/01 09:45:15;;;;;;;2.22;1.55;;;;;;;;;;5051283;28;20140;-67
2023/08/01 09:47:41;;;;;;;2.35;1.73;;;;;;;;;;5051553;28;20052;-67
2023/08/01 09:50:10;;;;;;;2.95;1.50;;;;;;;;;;5051472;28;20055;-67
2023/08/01 09:52:37;;;;;;;3.75;1.70;;;;;;;;;;5051871;28;20045;-67
2023/08/01 09:55:04;;;;;;;3.70;1.60;;;;;;;;;;5051841;28;20136;-67
2023/08/01 09:57:32;;;;;;;3.80;1.70;;;;;;;;;;5052393;28;20051;-67
2023/08/01 10:00:00;;;;;;;3.92;1.98;;;;;;;;;;5051153;28;20045;-67
2023/08/01 10:02:29;;;;;;;2.70;1.90;;;;;;;;;;5059521;22;20061;-67
2023/08/01 10:04:58;;;;;;;2.60;1.65;;;;;;;;;;5032887;28;20409;-68
2023/08/01 10:07:30;;;;;;;5.00;2.60;;;;;;;;;;5031808;28;20045;-68
2023/08/01 10:09:59;;;;;;;4.60;1.70;;;;;;;;;;5012817;28;20089;-67
2023/08/01 10:12:27;;;;;;;3.35;1.80;;;;;;;;;;5012043;28;20082;-65
2023/08/01 10:14:56;;;;;;;3.08;1.60;;;;;;;;;;5012754;28;20057;-70
2023/08/01 10:17:23;;;;;;;2.90;1.60;;;;;;;;;;5012117;28;20411;-67
2023/08/01 10:19:50;;;;;;;2.97;1.60;;;;;;;;;;5012293;28;20045;-67
2023/08/01 10:22:18;;;;;;;2.25;1.60;;;;;;;;;;5012174;28;20404;-68
2023/08/01 10:24:47;;;;;;;2.38;1.50;;;;;;;;;;5012556;28;20052;-66
2023/08/01 10:27:15;;;;;;;3.53;1.45;;;;;;;;;;5011848;28;20476;-65
2023/08/01 10:29:42;;;;;;;2.60;1.50;;;;;;;;;;5011757;28;20053;-67
2023/08/01 10:32:11;;;;;;;4.05;1.35;;;;;;;;;;5011662;28;20078;-66
2023/08/01 10:34:38;;;;;;;4.13;1.55;;;;;;;;;;5012153;28;20077;-65
2023/08/01 10:37:05;;;;;;;2.13;1.58;;;;;;;;;;5011974;28;20138;-66
2023/08/01 10:39:32;;;;;;;4.38;1.50;;;;;;;;;;5012072;28;20127;-65
2023/08/01 10:41:59;;;;;;;4.88;1.50;;;;;;;;;;5011694;28;20053;-66
2023/08/01 10:44:26;;;;;;;2.75;1.50;;;;;;;;;;5011520;28;20057;-66
2023/08/01 10:46:56;;;;;;;3.00;1.73;;;;;;;;;;5010774;28;20049;-66
2023/08/01 10:49:35;;;;;;;4.43;1.92;;;;;;;;;;5011125;28;20049;-66
2023/08/01 10:52:01;;;;;;;1.83;1.50;;;;;;;;;;5011849;28;20045;-65
2023/08/01 10:54:28;;;;;;;4.25;1.50;;;;;;;;;;5011711;28;20042;-65
2023/08/01 10:56:58;;;;;;;2.53;1.58;;;;;;;;;;5011900;28;20054;-66
2023/08/01 10:59:25;;;;;;;5.47;1.88;;;;;;;;;;5011355;28;20049;-69
2023/08/01 11:01:53;;;;;;;2.33;1.30;;;;;;;;;;5011821;28;20060;-66
2023/08/01 11:04:21;;;;;;;3.47;1.58;;;;;;;;;;5011590;28;20052;-66
2023/08/01 11:06:50;;;;;;;3.13;1.67;;;;;;;;;;5011691;28;20054;-66
2023/08/01 11:09:19;;;;;;;3.67;1.65;;;;;;;;;;5011267;28;20415;-66
2023/08/01 11:11:46;;;;;;;4.43;1.70;;;;;;;;;;5011612;28;20042;-65
2023/08/01 11:14:14;;;;;;;3.15;1.55;;;;;;;;;;5011181;28;20042;-66
2023/08/01 11:16:41;;;;;;;2.20;1.48;;;;;;;;;;5011426;28;20042;-67
2023/08/01 11:19:19;;;;;;;1.55;1.30;;;;;;;;;;5010592;28;20085;-66
2023/08/01 11:21:46;;;;;;;2.33;1.20;;;;;;;;;;5010942;28;20112;-66
2023/08/01 11:24:14;;;;;;;3.08;1.40;;;;;;;;;;5010834;28;20045;-65
2023/08/01 11:26:44;;;;;;;3.20;1.58;;;;;;;;;;5011304;28;20046;-65
2023/08/01 11:29:12;;;;;;;2.08;1.27;;;;;;;;;;5011126;28;20134;-67
2023/08/01 11:31:39;;;;;;;2.92;1.20;;;;;;;;;;5011137;28;20088;-67
2023/08/01 11:34:08;;;;;;;3.15;1.63;;;;;;;;;;5011129;28;20484;-68
2023/08/01 11:36:34;;;;;;;3.38;1.40;;;;;;;;;;5010470;28;20136;-68
2023/08/01 11:39:02;;;;;;;2.90;1.65;;;;;;;;;;5011208;28;20514;-67
2023/08/01 11:41:31;;;;;;;2.50;1.45;;;;;;;;;;5010777;28;20054;-65
2023/08/01 11:44:02;;;;;;;3.10;1.42;;;;;;;;;;5010824;28;20048;-68
2023/08/01 11:46:32;;;;;;;3.22;1.50;;;;;;;;;;5010753;28;20058;-66
2023/08/01 11:48:59;;;;;;;4.43;1.60;;;;;;;;;;5010939;28;20045;-66
2023/08/01 11:51:26;;;;;;;2.80;1.30;;;;;;;;;;5010224;28;20060;-67
2023/08/01 11:53:59;;;;;;;2.67;1.40;;;;;;;;;;5010997;28;20046;-67
2023/08/01 11:56:26;;;;;;;2.35;1.55;;;;;;;;;;5010399;28;20046;-68
2023/08/01 11:58:54;;;;;;;3.13;1.45;;;;;;;;;;5012535;28;20054;-67
2023/08/01 12:01:21;;;;;;;3.38;1.50;;;;;;;;;;5014542;28;20053;-67
2023/08/01 12:03:50;;;;;;;3.92;1.58;;;;;;;;;;5014789;28;20073;-65
2023/08/01 12:06:18;;;;;;;3.85;1.58;;;;;;;;;;5014728;28;20638;-67
2023/08/01 12:08:46;;;;;;;2.42;1.30;;;;;;;;;;5014877;28;20048;-67
2023/08/01 12:11:21;;;;;;;2.03;1.30;;;;;;;;;;5015173;28;20128;-67
2023/08/01 12:13:48;;;;;;;4.47;1.70;;;;;;;;;;5014535;28;20049;-67
2023/08/01 12:16:19;;;;;;;2.28;1.25;;;;;;;;;;5014866;28;20049;-66
2023/08/01 12:18:47;;;;;;;2.25;1.10;;;;;;;;;;5014292;28;20054;-66
2023/08/01 12:21:13;;;;;;;3.03;1.30;;;;;;;;;;5014594;28;20104;-66
2023/08/01 12:23:41;;;;;;;2.70;1.50;;;;;;;;;;5014136;28;20052;-66
2023/08/01 12:26:08;;;;;;;3.75;1.40;;;;;;;;;;5014256;28;20042;-68
2023/08/01 12:28:35;;;;;;;4.40;1.20;;;;;;;;;;5014218;28;20399;-68
2023/08/01 12:31:01;;;;;;;2.65;1.48;;;;;;;;;;5014486;28;20049;-68
2023/08/01 12:33:29;;;;;;;2.50;1.48;;;;;;;;;;5014043;28;20054;-66
2023/08/01 12:35:56;;;;;;;3.50;1.00;;;;;;;;;;5014411;28;20047;-67
2023/08/01 12:38:23;;;;;;;2.28;1.23;;;;;;;;;;5014065;28;20419;-67
2023/08/01 12:40:49;;;;;;;3.60;1.30;;;;;;;;;;5014248;28;20088;-66
2023/08/01 12:43:16;;;;;;;3.53;1.35;;;;;;;;;;5013902;28;20050;-67
2023/08/01 12:45:43;;;;;;;3.50;1.20;;;;;;;;;;5013821;28;20050;-67
2023/08/01 12:48:10;;;;;;;2.85;1.30;;;;;;;;;;5013774;28;20488;-65
2023/08/01 12:50:38;;;;;;;6.32;1.40;;;;;;;;;;5013968;28;20133;-68
2023/08/01 12:53:04;;;;;;;4.57;1.63;;;;;;;;;;5014156;28;20084;-67
2023/08/01 12:55:31;;;;;;;2.05;1.17;;;;;;;;;;5013617;28;20050;-64
2023/08/01 12:57:57;;;;;;;1.63;1.25;;;;;;;;;;5013891;28;20508;-66
2023/08/01 13:00:24;;;;;;;3.35;1.40;;;;;;;;;;5013687;28;20050;-67
2023/08/01 13:02:51;;;;;;;2.20;1.05;;;;;;;;;;5013714;28;20136;-67
2023/08/01 13:05:17;;;;;;;2.28;1.17;;;;;;;;;;5013414;28;20460;-66
2023/08/01 13:07:45;;;;;;;2.10;1.00;;;;;;;;;;5013390;28;20056;-68
2023/08/01 13:10:12;;;;;;;3.08;1.13;;;;;;;;;;5012464;28;20060;-67
2023/08/01 13:12:38;;;;;;;1.88;1.17;;;;;;;;;;5013593;28;20046;-68
2023/08/01 13:15:06;;;;;;;3.15;1.23;;;;;;;;;;5013046;28;20136;-68
2023/08/01 13:17:33;;;;;;;2.63;1.20;;;;;;;;;;5014230;28;20052;-67
2023/08/01 13:19:59;;;;;;;4.45;1.40;;;;;;;;;;5012806;28;20048;-68
2023/08/01 13:22:26;;;;;;;3.85;1.73;;;;;;;;;;5013092;28;20050;-68
2023/08/01 13:24:54;;;;;;;4.90;2.10;;;;;;;;;;5013188;28;20072;-67
2023/08/01 13:27:20;;;;;;;7.43;2.15;;;;;;;;;;5013203;28;20042;-67
2023/08/01 13:29:50;;;;;;;7.50;2.33;;;;;;;;;;5012785;28;20105;-69
2023/08/01 13:32:16;;;;;;;4.35;2.00;;;;;;;;;;5012585;28;20057;-68
2023/08/01 13:34:43;;;;;;;3.40;1.90;;;;;;;;;;5012997;28;20042;-68
2023/08/01 13:37:09;;;;;;;3.55;1.90;;;;;;;;;;5012499;28;20148;-67
2023/08/01 13:39:36;;;;;;;4.43;1.95;;;;;;;;;;5012924;28;20045;-67
2023/08/01 13:42:05;;;;;;;3.78;2.10;;;;;;;;;;5012493;28;20050;-67
2023/08/01 13:44:32;;;;;;;3.83;1.70;;;;;;;;;;5012822;28;20140;-67
2023/08/01 13:46:59;;;;;;;4.15;1.92;;;;;;;;;;5012098;28;20053;-68
2023/08/01 13:49:26;;;;;;;6.35;2.05;;;;;;;;;;5012812;28;20058;-67
2023/08/01 13:51:52;;;;;;;5.35;1.77;;;;;;;;;;5012304;28;20058;-67
2023/08/01 13:54:19;;;;;;;2.95;2.08;;;;;;;;;;5012797;28;20042;-68
2023/08/01 13:56:45;;;;;;;3.13;1.58;;;;;;;;;;5012304;28;20049;-67
2023/08/01 13:59:13;;;;;;;6.28;2.03;;;;;;;;;;5012302;28;20053;-69
2023/08/01 14:01:40;;;;;;;1.90;1.25;;;;;;;;;;5012409;28;20046;-68
2023/08/01 14:04:06;;;;;;;1.70;1.30;;;;;;;;;;5012158;28;20052;-68
2023/08/01 14:06:34;;;;;;;2.15;1.40;;;;;;;;;;5012563;28;20048;-67
2023/08/01 14:09:01;;;;;;;2.95;1.20;;;;;;;;;;5012130;28;20324;-66
2023/08/01 14:11:27;;;;;;;2.67;1.30;;;;;;;;;;5012404;28;20057;-68
2023/08/01 14:13:54;;;;;;;2.00;1.20;;;;;;;;;;5011683;28;20052;-66
2023/08/01 14:16:22;;;;;;;2.35;1.30;;;;;;;;;;5012270;28;20042;-67
2023/08/01 14:18:48;;;;;;;1.70;1.10;;;;;;;;;;5011930;28;20060;-67
2023/08/01 14:21:15;;;;;;;3.08;1.35;;;;;;;;;;5012278;28;20042;-68
2023/08/01 14:23:42;;;;;;;1.58;1.00;;;;;;;;;;5011892;28;20042;-65
2023/08/01 14:26:09;;;;;;;2.95;1.20;;;;;;;;;;5012922;28;20136;-68
2023/08/01 14:28:36;;;;;;;2.97;1.10;;;;;;;;;;5011923;28;20423;-67
2023/08/01 14:31:03;;;;;;;1.55;1.00;;;;;;;;;;5012377;28;20045;-68
2023/08/01 14:33:31;;;;;;;3.05;1.42;;;;;;;;;;5011443;28;20207;-68
2023/08/01 14:35:58;;;;;;;4.38;1.30;;;;;;;;;;5012566;28;20688;-67
2023/08/01 14:38:24;;;;;;;2.25;1.10;;;;;;;;;;5011587;28;20047;-65
2023/08/01 14:40:53;;;;;;;2.90;1.13;;;;;;;;;;5012122;28;20046;-69
2023/08/01 14:43:20;;;;;;;2.13;1.20;;;;;;;;;;5012093;28;20071;-64